• Join FlightAware (Why Join?)
  • Login
  • US Flag 
08:53AM EST


 

Airport Tracker/Info


-or-


 

Live Flight TrackerFlight Track Log ✈ UAL3773 ✈ 15-Apr-2013 ✈ KCLT - KIAD

Flight Track Log - Related Links

Times and Time Zones

All times are in EDT time to prevent confusion due to time zone crossing. See the UAL3773 flight status page for this flight to view local times or setup timezone preferences in your user account.

Time Position Orientation Groundspeed Altitude Reporting Facility
EDT Latitude Longitude Course Direction KTS MPH feet Rate Location/Type
10:36AM 35.1928 -80.9356 182° South 163 188 1,400  Level Atlanta Center
10:37AM 35.1761 -80.9361 182° South 161 185 2,300 1,500 Climbing Atlanta Center
10:38AM 35.1275 -80.9025 151° Southeast 243 280 3,400 2,100 Climbing Atlanta Center
10:39AM 35.0961 -80.8200 115° Southeast 296 341 6,400 2,520 Climbing Atlanta Center
10:40AM 35.1022 -80.7358 85° East 300 345 8,600 2,280 Climbing Atlanta Center
10:41AM 35.1267 -80.6358 73° East 314 361 11,000 1,980 Climbing Atlanta Center
10:42AM 35.2083 -80.5792 30° Northeast 310 357 12,600 1,980 Climbing Atlanta Center
10:44AM 35.3731 -80.3428 49° Northeast 372 428 17,700 2,040 Climbing Washington Center
10:45AM 35.4117 -80.2100 70° East 392 451 19,600 1,740 Climbing Washington Center
10:46AM 35.4503 -80.0769 70° East 418 481 21,200 1,440 Climbing Washington Center
10:47AM 35.4817 -79.9564 72° East 418 481 22,500 1,500 Climbing Washington Center
10:48AM 35.5161 -79.8128 74° East 418 481 24,200 1,320 Climbing Washington Center
10:49AM 35.5544 -79.6719 71° East 418 481 25,200 1,080 Climbing Washington Center
10:50AM 35.5908 -79.5203 74° East 444 511 26,400 900 Climbing Washington Center
10:51AM 35.6372 -79.3769 68° East 451 519 27,000 300 Climbing Washington Center
10:52AM 35.6958 -79.2339 63° Northeast 451 519 27,000  Level Washington Center
10:53AM 35.7925 -79.1464 36° Northeast 431 496 27,000  Level Washington Center
10:54AM 35.9011 -79.0667 31° Northeast 431 496 27,000  Level Washington Center
10:55AM 36.0164 -78.9792 32° Northeast 437 503 27,000  Level Washington Center
10:56AM 36.1231 -78.8989 31° Northeast 442 509 27,000  Level Washington Center
10:57AM 36.2314 -78.8211 30° Northeast 442 509 27,000  Level Washington Center
10:58AM 36.3358 -78.7428 31° Northeast 442 509 27,000  Level Washington Center
10:59AM 36.4358 -78.6669 31° Northeast 434 499 27,000  Level Washington Center
11:00AM 36.5314 -78.5956 31° Northeast 423 487 27,000 -300 Level Washington Center
11:01AM 36.6144 -78.5317 32° Northeast 383 441 26,500 -780 Descending Washington Center
11:02AM 36.6994 -78.4647 32° Northeast 361 415 25,500 -780 Descending Washington Center
11:03AM 36.7867 -78.4006 31° Northeast 361 415 25,000 -600 Descending Washington Center
11:04AM 36.8717 -78.3361 31° Northeast 356 410 24,300 -900 Descending Washington Center
11:05AM 36.9503 -78.2739 32° Northeast 356 410 23,300 -960 Descending Washington Center
11:06AM 37.0372 -78.2069 32° Northeast 362 417 22,400 -660 Descending Washington Center
11:07AM 37.1242 -78.1394 32° Northeast 362 417 22,000 -240 Descending Washington Center
11:08AM 37.2067 -78.0794 30° Northeast 344 396 22,000  Level Washington Center
11:09AM 37.2831 -78.0194 32° Northeast 344 396 22,000 -300 Level Washington Center
11:10AM 37.3658 -77.9567 31° Northeast 349 402 21,400 -1,080 Descending Washington Center
11:11AM 37.4506 -77.8914 31° Northeast 349 402 19,900 -1,500 Descending Washington Center
11:12AM 37.5308 -77.8283 32° Northeast 349 402 18,400 -1,440 Descending Washington Center
11:13AM 37.6153 -77.7783 25° Northeast 341 392 17,100 -1,320 Descending Washington Center
11:14AM 37.6997 -77.7283 25° Northeast 324 373 15,800 -1,320 Descending Washington Center
11:15AM 37.7817 -77.6806 25° Northeast 324 373 14,500 -1,320 Descending Washington Center
11:16AM 37.8575 -77.6353 25° Northeast 314 361 13,200 -1,260 Descending Washington Center
11:17AM 37.9333 -77.5900 25° Northeast 303 349 12,000 -1,140 Descending Washington Center
11:18AM 38.0114 -77.5447 25° Northeast 303 349 11,000 -900 Descending Washington Center
11:19AM 38.0914 -77.4992 24° Northeast 303 349 10,200 -540 Descending Washington Center
11:20AM 38.1711 -77.4697 16° North 298 343 10,000 -240 Descending Washington Center
11:21AM 38.2547 -77.4506 10° North 293 337 9,800 -900 Descending Washington Center
11:22AM 38.3386 -77.4314 10° North 293 337 8,300 -1,500 Descending Washington Center
11:23AM 38.4222 -77.4069 13° North 300 345 6,900 -1,320 Descending Washington Center
11:24AM 38.5017 -77.3878 11° North 295 339 5,700 -960 Descending Washington Center
11:25AM 38.5772 -77.3683 11° North 290 334 5,000 -840 Descending Washington Center
11:26AM 38.6647 -77.3625 North 279 321 4,100 -540 Descending Washington Center
11:27AM 38.7400 -77.3589 North 279 321 4,000 -60 Descending Washington Center
11:28AM 38.8333 -77.3500 North 287 330 4,000 -240 Level Potomac TRACON
11:29AM 38.9167 -77.3500 360° North 282 325 3,500 -540 Descending Potomac TRACON
11:30AM 39.0000 -77.3500 360° North 263 303 3,000 -720 Descending Potomac TRACON
11:31AM 39.0500 -77.3667 345° North 235 270 2,100 -540 Descending Potomac TRACON
11:32AM 39.0500 -77.4333 270° West 193 222 2,000 -120 Descending Potomac TRACON